CYQF

Red Deer Regional Airport

Red Deer, Alberta, Canada
METAR CYQF 152200Z 11008KT 070V170 1SM FU OVC032 26/10 A2991 RMK FU6FU2 SLP129 DENSITY ALT 4900FT
Observed Flight Rules
Aug-15 @ 22:00 UTC (27 minutes ago) Instrument Flight Rules
Wind Visibility Clouds Conditions
110° at 8 knots 1 miles
  • Overcast at 3,200' AGL
  • Smoke
Temperatures Readings
Current 26°C / 79°F
Dewpoint 10°C / 50°F
Humidity 37%
Altimeter 29.91" Hg
Pressure 1012.9 hPa
Elevation 905
METAR CYQF 152200Z 11008KT 070V170 1SM FU OVC032 26/10 A2991 RMK FU6FU2 SLP129 DENSITY ALT 4900FT
Observed Flight Rules
Aug-15 @ 22:00 UTC
(27 minutes ago)
IFR
Wind Visibility
110° at 8 knots 1 miles
Clouds
  • Overcast at 3,200' AGL
Conditions
  • Smoke
Temperature Dewpoint
26°C / 79°F 10°C / 50°F
Humidity Altimeter Pressure
37% 29.91" Hg 1012.9 hPa